Terminal Aerodrome Forecast
Issued by NWS

Home | Current Version | Previous Version | Text Only | Print | Product List | Glossary On
Versions: 1 2 3 4 5 6 7 8 9 10 11 12 13 14 15 16 17 18 19 20 21 22 23 24 25 26 27 28 29 30 31 32 33 34
000
FTUS45 KCYS 050301 AAA
TAFLAR
TAF AMD
KLAR 050301Z 0503/0524 14015KT P6SM VCSH SCT020 BKN080
     FM050500 15011KT P6SM BKN010 OVC025
     FM050900 16011KT 3SM BR OVC005=

USA.gov is the U.S. government's official web portal to all federal, state and local government web resources and services.